Gustavus Airport
PAGS : now visible

Airfield :











YOU CAN JOIN US ON...

 
LOGIN :

Register | Disclaimer

   EN    FR    IT 

 









Legend :    VFR   Marginal VFR   IFR   Intensive IFR   Very Intensive IFR
Visi :
Ceiling :
>= 8 km
>= 3000ft
5 to 8 km
1000 to 3000 ft
1500m to 5 km
500 to 1000 ft
800 to 1500m
200 to 500 ft
< 800m
< 200 ft
Symbols :   Thunderstorms  Fog  Heavy snow  Heavy precipitations  Wind > 20 kt







- Airport Elevation : 35 ft
- IATA code : GST


PAGS - Gustavus

CURRENT METAR :
  • 211056Z AUTO 11012KT 10SM OVC070 13/12 A2941 RMK AO2 SLP959 P0003 T01330117

EXPIRED METARs :
  • 210956Z AUTO 13008KT 10SM FEW060 BKN075 13/12 A2942 RMK AO2 SLP961 P0003 T01330117
  • 210856Z AUTO 13014G19KT 10SM SCT043 OVC080 14/12 A2941 RMK AO2 RAE10 SLP959 P0004 60013 T01390122 401440111 53015

TAF PAGS
Valid from the 21 at 06:00 until the 22 at 06:00 UTC


210533Z 2106/2206 14015G25KT P6SM -RA SCT015 OVC050
TEMPO 2106/2109 4SM RA BR BKN015
FM210900 14012G18KT 6SM -RA BR SCT005 BKN012 OVC025
TEMPO 2109/2113 2SM -RA BR BKN005
FM211500 15010KT P6SM -SHRA SCT010 BKN025 OVC040 AMD LTD TO CLD VIS AND WIND
No reported NOTAMs for that airfield.



MET'MAP, your aeronautical weather chart ! - Copyright ORBIFLY December 2007 - Disclaimer

ORBIFLY MET'MAP TEAM :

Programming & Development : Alexandra Zaïnal
Concept & Development : Baudouin d'Aumeries
Co-Development & Prog : Marc-Olivier Méhu
Technical & hardware support : Manuel Goepfert

Contact : metmap@orbifly.com




SOURCES & CREDITS :

   NOAA       Earth
Advisory